Time;durP1;ratioP1;P1;durP2;ratioP2;P2;SDS_P1;SDS_P2;PMS_P1;PMS_P2;Temp;Humidity;BMP_temperature;BMP_pressure;BME280_temperature;BME280_humidity;BME280_pressure;Samples;Min_cycle;Max_cycle;Signal;HPM_P1;HPM_P2
2022/06/26 00:01:09;;;;;;;1.90;1.80;;;;;;;21.91;58.75;100415.25;5074685;28;20224;-79
2022/06/26 00:03:37;;;;;;;1.70;1.60;;;;;;;21.90;59.23;100382.53;5074769;28;20263;-80
2022/06/26 00:06:03;;;;;;;3.37;1.50;;;;;;;21.91;59.43;100368.25;5058766;28;20229;-79
2022/06/26 00:08:30;;;;;;;1.70;1.60;;;;;;;21.95;58.98;100384.88;5054317;28;20201;-80
2022/06/26 00:10:56;;;;;;;1.30;1.30;;;;;;;21.93;59.07;100384.97;5054400;28;20229;-80
2022/06/26 00:13:23;;;;;;;2.77;1.73;;;;;;;21.92;58.58;100388.59;5054135;28;20684;-80
2022/06/26 00:15:49;;;;;;;2.00;1.70;;;;;;;21.88;58.46;100400.34;5053932;28;20198;-80
2022/06/26 00:18:16;;;;;;;1.67;1.57;;;;;;;21.86;58.08;100414.69;5054713;28;20208;-78
2022/06/26 00:20:44;;;;;;;2.77;1.53;;;;;;;21.85;57.50;100421.84;5054098;28;20229;-81
2022/06/26 00:23:10;;;;;;;1.43;1.33;;;;;;;21.86;58.47;100435.97;5056398;28;20213;-79
2022/06/26 00:25:37;;;;;;;1.80;1.70;;;;;;;21.88;57.40;100426.94;5057740;28;20202;-79
2022/06/26 00:28:04;;;;;;;1.60;1.50;;;;;;;21.84;57.37;100440.53;5058179;28;20255;-80
2022/06/26 00:30:30;;;;;;;2.00;1.83;;;;;;;21.75;57.51;100448.16;5058140;28;20226;-79
2022/06/26 00:32:56;;;;;;;1.80;1.70;;;;;;;21.68;58.02;100436.22;5058293;28;20228;-79
2022/06/26 00:35:23;;;;;;;2.00;1.90;;;;;;;21.66;58.94;100410.72;5058109;28;20213;-78
2022/06/26 00:37:51;;;;;;;4.07;2.73;;;;;;;21.56;60.31;100383.91;5072021;28;20878;-80
2022/06/26 00:40:17;;;;;;;2.20;2.10;;;;;;;21.49;61.29;100350.75;5078017;28;20271;-78
2022/06/26 00:42:44;;;;;;;2.33;2.23;;;;;;;21.40;61.73;100326.44;5077366;28;20227;-80
2022/06/26 00:45:11;;;;;;;2.53;2.30;;;;;;;21.35;62.12;100319.75;5077620;28;20213;-79
2022/06/26 00:47:37;;;;;;;2.10;2.00;;;;;;;21.31;62.25;100308.47;5077099;28;20269;-79
2022/06/26 00:50:07;;;;;;;2.87;2.67;;;;;;;21.27;62.69;100293.72;5077092;28;20578;-80
2022/06/26 00:52:34;;;;;;;2.10;2.00;;;;;;;21.16;63.05;100283.78;5077261;28;20201;-79
2022/06/26 00:55:02;;;;;;;2.20;2.07;;;;;;;21.11;63.55;100274.41;5077158;28;20200;-78
2022/06/26 00:57:29;;;;;;;2.10;2.00;;;;;;;21.14;63.47;100261.78;5076918;28;20205;-78
2022/06/26 00:59:57;;;;;;;2.10;1.90;;;;;;;21.03;63.88;100259.84;5077331;28;20224;-79
2022/06/26 01:02:23;;;;;;;3.23;2.40;;;;;;;21.10;63.42;100270.06;5077574;28;20208;-79
2022/06/26 01:04:50;;;;;;;2.87;2.73;;;;;;;20.99;63.87;100265.44;5077365;28;20627;-79
2022/06/26 01:07:16;;;;;;;2.53;2.33;;;;;;;20.98;63.81;100259.28;5077177;28;20274;-79
2022/06/26 01:09:43;;;;;;;2.60;2.50;;;;;;;20.94;63.81;100268.41;5076799;28;20270;-79
2022/06/26 01:12:17;;;;;;;2.63;2.53;;;;;;;20.69;64.85;100247.91;5077502;28;20209;-80
2022/06/26 01:14:43;;;;;;;2.80;2.60;;;;;;;20.48;65.39;100236.84;5075083;28;20678;-78
2022/06/26 01:17:10;;;;;;;2.40;2.20;;;;;;;20.48;65.51;100218.28;5077154;28;20242;-79
2022/06/26 01:19:38;;;;;;;2.20;2.10;;;;;;;20.13;66.60;100200.16;5076734;28;20228;-79
2022/06/26 01:22:04;;;;;;;2.57;2.37;;;;;;;20.22;66.50;100189.00;5077024;28;20200;-78
2022/06/26 01:24:32;;;;;;;1.90;1.80;;;;;;;20.33;66.39;100190.94;5076330;28;20211;-79
2022/06/26 01:27:00;;;;;;;2.30;2.10;;;;;;;20.39;66.45;100182.59;5076584;28;20640;-80
2022/06/26 01:29:26;;;;;;;2.50;2.20;;;;;;;20.43;66.50;100178.81;5076023;28;20220;-80
2022/06/26 01:31:53;;;;;;;2.30;2.20;;;;;;;20.46;66.22;100185.72;5076720;28;20266;-80
2022/06/26 01:34:20;;;;;;;2.80;2.60;;;;;;;20.44;66.39;100193.78;5075068;28;20254;-79
2022/06/26 01:36:46;;;;;;;2.50;2.00;;;;;;;20.43;65.68;100205.34;5070677;28;20204;-79
2022/06/26 01:39:13;;;;;;;2.10;2.00;;;;;;;20.44;64.72;100235.34;5075499;28;20674;-79
2022/06/26 01:41:41;;;;;;;2.07;1.97;;;;;;;20.49;64.13;100261.56;5076390;28;20231;-80
2022/06/26 01:44:09;;;;;;;2.20;1.93;;;;;;;20.44;64.09;100272.47;5075764;28;20217;-80
2022/06/26 01:46:35;;;;;;;1.70;1.60;;;;;;;20.36;64.18;100270.28;5076393;28;20269;-79
2022/06/26 01:49:02;;;;;;;1.67;1.50;;;;;;;20.40;63.87;100270.97;5075698;28;20209;-78
2022/06/26 01:51:28;;;;;;;1.70;1.60;;;;;;;20.40;63.88;100281.56;5076031;28;20235;-80
2022/06/26 01:53:54;;;;;;;1.73;1.63;;;;;;;20.40;64.13;100276.25;5076000;28;20254;-80
2022/06/26 01:56:21;;;;;;;2.20;2.10;;;;;;;20.45;64.68;100258.25;5076095;28;20204;-79
2022/06/26 01:58:49;;;;;;;2.10;2.00;;;;;;;20.43;64.59;100255.72;5076043;28;20242;-80
2022/06/26 02:01:15;;;;;;;2.07;1.97;;;;;;;20.44;64.79;100252.09;5075841;28;20274;-79
2022/06/26 02:03:41;;;;;;;1.90;1.80;;;;;;;20.42;65.03;100245.19;5075965;28;20681;-80
2022/06/26 02:06:08;;;;;;;2.30;2.10;;;;;;;20.41;65.01;100251.44;5070621;28;20204;-79
2022/06/26 02:08:34;;;;;;;2.50;1.77;;;;;;;20.41;64.91;100236.38;5068690;28;20208;-79
2022/06/26 02:13:45;;;;;;;1.93;1.73;;;;;;;20.41;64.89;100246.97;5062856;28;20199;-80
2022/06/26 02:16:15;;;;;;;1.90;1.80;;;;;;;20.38;65.16;100241.88;5062413;28;20204;-79
2022/06/26 02:18:43;;;;;;;2.20;2.00;;;;;;;20.35;65.73;100225.31;5067871;28;20193;-79
2022/06/26 02:21:13;;;;;;;2.40;2.30;;;;;;;20.31;65.68;100219.34;5067685;28;20223;-79
2022/06/26 02:23:41;;;;;;;2.40;2.20;;;;;;;20.29;65.94;100213.28;5066485;28;20219;-80
2022/06/26 02:26:09;;;;;;;2.10;2.00;;;;;;;20.24;66.04;100210.09;5071075;28;20197;-79
2022/06/26 02:28:36;;;;;;;1.97;1.87;;;;;;;20.23;65.92;100214.53;5073598;28;20679;-79
2022/06/26 02:31:02;;;;;;;1.90;1.67;;;;;;;20.23;65.68;100214.53;5065699;28;20218;-79
2022/06/26 02:33:32;;;;;;;2.40;2.27;;;;;;;20.22;66.31;100217.31;5067102;28;20617;-79
2022/06/26 02:35:58;;;;;;;2.23;2.10;;;;;;;20.13;65.98;100212.56;5066735;28;20236;-78
2022/06/26 02:38:25;;;;;;;2.00;1.90;;;;;;;20.12;65.79;100221.44;5063726;28;20247;-79
2022/06/26 02:40:52;;;;;;;2.07;1.97;;;;;;;20.11;66.04;100212.66;5063834;28;20221;-78
2022/06/26 02:43:19;;;;;;;2.27;2.17;;;;;;;20.01;66.50;100193.81;5071306;28;20200;-78
2022/06/26 02:45:46;;;;;;;2.47;2.30;;;;;;;20.01;66.75;100201.78;5060804;28;20641;-80
2022/06/26 02:48:12;;;;;;;2.57;2.30;;;;;;;19.96;66.75;100193.28;5065730;28;20216;-79
2022/06/26 02:50:40;;;;;;;2.57;2.10;;;;;;;19.93;67.33;100187.31;5068465;28;20572;-79
2022/06/26 02:53:07;;;;;;;2.17;1.97;;;;;;;19.91;67.38;100184.75;5055283;28;20213;-80
2022/06/26 02:55:33;;;;;;;2.20;2.00;;;;;;;19.91;67.43;100184.75;5055866;28;20201;-78
2022/06/26 02:58:00;;;;;;;1.97;1.80;;;;;;;19.75;68.29;100176.91;5055988;28;20255;-80
2022/06/26 03:00:26;;;;;;;2.57;2.37;;;;;;;19.79;68.73;100148.44;5055326;28;20225;-79
2022/06/26 03:02:52;;;;;;;5.53;1.73;;;;;;;19.88;67.33;100162.88;5055092;28;20209;-79
2022/06/26 03:05:19;;;;;;;2.10;1.90;;;;;;;19.83;68.21;100173.78;5057432;28;20737;-79
2022/06/26 03:07:47;;;;;;;2.30;2.10;;;;;;;19.81;68.37;100163.28;5074521;28;20678;-79
2022/06/26 03:10:13;;;;;;;1.90;1.80;;;;;;;19.87;67.86;100169.16;5075411;28;20278;-80
2022/06/26 03:12:44;;;;;;;1.93;1.83;;;;;;;19.85;67.95;100174.53;5075321;28;20237;-80
2022/06/26 03:15:11;;;;;;;2.37;2.27;;;;;;;19.84;68.02;100178.13;5075757;28;20208;-80
2022/06/26 03:17:38;;;;;;;2.13;1.77;;;;;;;19.88;67.65;100186.72;5074945;28;20205;-78
2022/06/26 03:20:06;;;;;;;1.87;1.77;;;;;;;19.90;68.06;100190.13;5075451;28;20224;-79
2022/06/26 03:22:32;;;;;;;2.37;2.17;;;;;;;19.73;66.19;100223.81;5076025;28;20254;-80
2022/06/26 03:25:00;;;;;;;2.20;2.10;;;;;;;19.72;66.31;100234.50;5075377;28;20204;-80
2022/06/26 03:27:26;;;;;;;2.27;2.13;;;;;;;19.78;66.61;100232.34;5074929;28;20432;-80
2022/06/26 03:29:53;;;;;;;2.20;2.10;;;;;;;19.84;66.86;100212.56;5075648;28;20228;-80
2022/06/26 03:32:19;;;;;;;2.47;2.27;;;;;;;19.81;66.71;100224.19;5075205;28;20682;-80
2022/06/26 03:34:45;;;;;;;2.43;2.23;;;;;;;19.80;67.05;100211.91;5070455;28;20239;-79
2022/06/26 03:37:12;;;;;;;2.60;2.40;;;;;;;19.82;66.94;100210.03;5073028;28;20189;-79
2022/06/26 03:39:38;;;;;;;2.27;2.10;;;;;;;19.81;67.73;100195.06;5075682;28;20224;-79
2022/06/26 03:42:06;;;;;;;3.93;2.47;;;;;;;19.48;67.83;100199.72;5075917;28;20209;-79
2022/06/26 03:44:32;;;;;;;2.73;2.53;;;;;;;19.51;68.45;100181.03;5075664;28;20278;-80
2022/06/26 03:46:59;;;;;;;2.60;2.50;;;;;;;19.55;68.17;100178.09;5075249;28;20268;-80
2022/06/26 03:49:26;;;;;;;2.63;2.53;;;;;;;19.51;68.97;100170.44;5075170;28;20232;-80
2022/06/26 03:51:52;;;;;;;2.70;2.50;;;;;;;19.49;68.73;100159.94;5075893;28;20207;-79
2022/06/26 03:54:19;;;;;;;2.80;2.70;;;;;;;19.56;68.94;100165.69;5075519;28;20230;-80
2022/06/26 03:56:46;;;;;;;3.60;3.30;;;;;;;19.64;68.43;100180.19;5075476;28;20721;-80
2022/06/26 03:59:14;;;;;;;2.77;2.63;;;;;;;19.72;67.80;100206.22;5079073;28;20257;-80
2022/06/26 04:01:41;;;;;;;3.37;3.03;;;;;;;19.74;67.77;100220.22;5079019;28;20204;-79
2022/06/26 04:04:07;;;;;;;3.00;2.77;;;;;;;19.75;67.78;100223.72;5078936;28;20598;-82
2022/06/26 04:06:34;;;;;;;3.63;2.63;;;;;;;19.70;68.07;100221.34;5071536;28;20282;-80
2022/06/26 04:09:00;;;;;;;2.97;2.77;;;;;;;19.72;68.35;100210.66;5078560;28;20739;-79
2022/06/26 04:11:29;;;;;;;2.63;2.47;;;;;;;19.68;68.32;100201.16;5079270;28;20204;-78
2022/06/26 04:13:55;;;;;;;3.10;2.90;;;;;;;19.70;68.58;100204.56;5080178;28;20254;-79
2022/06/26 04:16:23;;;;;;;3.23;3.03;;;;;;;19.67;69.06;100188.88;5079707;28;20269;-79
2022/06/26 04:18:49;;;;;;;2.80;2.50;;;;;;;19.70;69.63;100173.66;5079580;28;20205;-80
2022/06/26 04:21:16;;;;;;;2.90;2.80;;;;;;;19.69;69.77;100165.81;5079956;28;20743;-78
2022/06/26 04:23:42;;;;;;;2.80;2.67;;;;;;;19.75;69.58;100161.00;5080268;28;20234;-80
2022/06/26 04:26:08;;;;;;;2.73;2.60;;;;;;;19.76;70.04;100152.13;5079633;28;20227;-80
2022/06/26 04:28:35;;;;;;;2.57;2.47;;;;;;;19.79;70.32;100143.97;5079325;28;20642;-79
2022/06/26 04:31:01;;;;;;;2.50;2.30;;;;;;;19.83;70.32;100152.59;5080271;28;20275;-77
2022/06/26 04:33:29;;;;;;;2.90;2.70;;;;;;;19.89;69.93;100154.00;5080233;28;20211;-79
2022/06/26 04:35:55;;;;;;;2.57;2.47;;;;;;;19.91;69.78;100160.91;5079365;28;20325;-78
2022/06/26 04:38:22;;;;;;;3.30;2.50;;;;;;;19.95;69.37;100169.53;5079042;28;20258;-79
2022/06/26 04:40:48;;;;;;;4.10;2.87;;;;;;;19.98;69.61;100172.84;5079044;28;20235;-80
2022/06/26 04:43:15;;;;;;;2.27;2.17;;;;;;;20.01;69.72;100166.47;5080071;28;20209;-80
2022/06/26 04:45:41;;;;;;;2.27;2.07;;;;;;;20.06;70.11;100167.06;5079680;28;20213;-79
2022/06/26 04:48:08;;;;;;;2.40;2.30;;;;;;;20.08;70.62;100153.69;5079860;28;20228;-79
2022/06/26 04:50:36;;;;;;;2.47;2.37;;;;;;;20.13;70.26;100152.44;5079533;28;20225;-80
2022/06/26 04:53:02;;;;;;;3.17;2.90;;;;;;;20.15;68.84;100182.34;5079736;28;20557;-80
2022/06/26 04:55:29;;;;;;;3.07;2.87;;;;;;;20.21;68.29;100220.88;5079050;28;20254;-79
2022/06/26 04:57:55;;;;;;;3.03;2.83;;;;;;;20.24;68.42;100216.25;5079038;28;20205;-80
2022/06/26 05:00:22;;;;;;;3.30;3.10;;;;;;;20.28;68.49;100230.16;5078913;28;20718;-79
2022/06/26 05:02:48;;;;;;;3.70;3.17;;;;;;;20.31;67.90;100240.56;5079440;28;20258;-80
2022/06/26 05:05:15;;;;;;;2.93;2.73;;;;;;;20.36;68.06;100249.09;5079027;28;20208;-79
2022/06/26 05:07:42;;;;;;;3.27;2.70;;;;;;;20.38;68.21;100233.94;5077827;28;20270;-79
2022/06/26 05:10:09;;;;;;;3.13;2.93;;;;;;;20.44;67.78;100245.97;5078274;28;20228;-80
2022/06/26 05:12:36;;;;;;;3.27;3.00;;;;;;;20.49;67.05;100258.91;5079381;28;20204;-80
2022/06/26 05:15:02;;;;;;;3.07;2.87;;;;;;;20.53;66.77;100284.28;5078477;28;20205;-79
2022/06/26 05:17:28;;;;;;;2.60;2.47;;;;;;;20.56;66.44;100287.59;5078397;28;20201;-79
2022/06/26 05:19:55;;;;;;;3.47;3.17;;;;;;;20.61;67.05;100282.03;5078166;28;20286;-79
2022/06/26 05:22:21;;;;;;;2.83;2.63;;;;;;;20.65;67.61;100259.66;5078843;28;20266;-78
2022/06/26 05:24:49;;;;;;;2.90;2.70;;;;;;;20.71;67.83;100250.47;5077553;28;20212;-80
2022/06/26 05:27:15;;;;;;;3.97;3.67;;;;;;;20.33;70.30;100230.72;5077308;28;20278;-80
2022/06/26 05:29:41;;;;;;;3.80;3.50;;;;;;;19.66;74.50;100100.63;5076779;28;20228;-79
2022/06/26 05:32:08;;;;;;;4.37;3.97;;;;;;;19.28;75.02;100042.13;5076484;28;20211;-79
2022/06/26 05:34:35;;;;;;;4.00;3.70;;;;;;;19.35;75.53;100024.94;5073324;28;20216;-78
2022/06/26 05:37:01;;;;;;;3.70;3.40;;;;;;;19.59;75.69;100027.84;5073438;28;20285;-79
2022/06/26 05:39:28;;;;;;;3.90;3.10;;;;;;;19.80;75.18;100026.50;5075840;28;20279;-79
2022/06/26 05:41:55;;;;;;;2.83;2.70;;;;;;;20.02;75.69;100015.38;5076993;28;20205;-78
2022/06/26 05:44:22;;;;;;;3.07;2.87;;;;;;;20.10;74.69;100044.03;5076689;28;20624;-79
2022/06/26 05:46:48;;;;;;;3.30;3.00;;;;;;;20.06;75.58;100057.53;5077263;28;20197;-79
2022/06/26 05:49:14;;;;;;;4.27;3.97;;;;;;;19.67;78.70;99999.06;5077035;28;20326;-79
2022/06/26 05:51:41;;;;;;;3.60;3.40;;;;;;;19.63;78.69;99986.97;5076199;28;20205;-78
2022/06/26 05:54:07;;;;;;;3.73;3.43;;;;;;;19.58;78.57;99981.97;5076168;28;20628;-78
2022/06/26 05:56:33;;;;;;;4.07;3.83;;;;;;;19.56;78.98;99975.06;5075188;28;20739;-78
2022/06/26 05:59:01;;;;;;;4.10;3.80;;;;;;;19.49;78.87;99992.31;5076100;28;20575;-78
2022/06/26 06:01:28;;;;;;;3.77;3.47;;;;;;;19.52;78.42;100005.31;5076144;28;20678;-78
2022/06/26 06:03:54;;;;;;;3.97;3.67;;;;;;;19.61;77.93;100012.69;5076496;28;20204;-78
2022/06/26 06:06:20;;;;;;;3.83;3.63;;;;;;;19.73;77.81;100024.34;5068193;28;20227;-79
2022/06/26 06:08:48;;;;;;;3.80;3.50;;;;;;;19.82;78.91;100032.56;5075555;28;20286;-79
2022/06/26 06:11:15;;;;;;;3.50;3.20;;;;;;;20.03;78.74;100017.06;5074111;28;20281;-78
2022/06/26 06:13:41;;;;;;;3.43;3.33;;;;;;;20.14;77.73;100060.56;5075005;28;20745;-78
2022/06/26 06:16:09;;;;;;;3.40;3.10;;;;;;;20.19;76.45;100083.16;5074818;28;20209;-78
2022/06/26 06:18:35;;;;;;;3.73;3.43;;;;;;;20.23;75.31;100110.31;5074212;28;20207;-78
2022/06/26 06:21:02;;;;;;;5.23;3.20;;;;;;;20.23;74.57;100124.41;5074135;28;20607;-79
2022/06/26 06:23:28;;;;;;;3.33;3.10;;;;;;;20.23;74.62;100142.97;5076343;28;20203;-79
2022/06/26 06:25:54;;;;;;;3.60;3.40;;;;;;;20.29;75.38;100125.81;5075835;28;20204;-78
2022/06/26 06:28:22;;;;;;;3.80;3.50;;;;;;;20.47;74.84;100126.44;5075870;28;20228;-79
2022/06/26 06:30:48;;;;;;;3.43;3.13;;;;;;;20.64;74.45;100138.63;5078339;28;20281;-79
2022/06/26 06:33:16;;;;;;;3.13;2.93;;;;;;;20.80;73.95;100162.34;5078761;28;20200;-78
2022/06/26 06:35:42;;;;;;;3.10;2.90;;;;;;;20.75;73.59;100194.47;5071226;28;20208;-78
2022/06/26 06:38:09;;;;;;;3.70;3.40;;;;;;;20.86;73.51;100190.28;5069877;28;20197;-79
2022/06/26 06:40:36;;;;;;;3.03;2.93;;;;;;;21.00;73.15;100206.13;5076056;28;20224;-79
2022/06/26 06:43:03;;;;;;;3.23;3.03;;;;;;;21.15;72.63;100225.47;5076856;28;20201;-80
2022/06/26 06:45:29;;;;;;;3.07;2.87;;;;;;;21.26;71.65;100253.97;5077333;28;20622;-79
2022/06/26 06:47:56;;;;;;;5.93;3.00;;;;;;;21.36;68.54;100321.44;5075947;28;20311;-79
2022/06/26 06:50:24;;;;;;;3.53;3.23;;;;;;;21.53;68.72;100360.22;5075416;28;20232;-78
2022/06/26 06:52:50;;;;;;;3.40;3.17;;;;;;;21.64;68.39;100378.94;5073959;28;20205;-79
2022/06/26 06:55:16;;;;;;;2.87;2.67;;;;;;;21.73;67.65;100390.78;5073716;28;20204;-77
2022/06/26 06:57:43;;;;;;;2.83;2.73;;;;;;;21.86;66.79;100414.69;5073475;28;20235;-79
2022/06/26 07:00:10;;;;;;;3.23;2.93;;;;;;;21.96;66.35;100429.94;5073525;28;20228;-79
2022/06/26 07:02:37;;;;;;;3.20;3.00;;;;;;;22.02;65.72;100447.28;5074757;28;20251;-79
2022/06/26 07:05:05;;;;;;;2.80;2.60;;;;;;;22.14;66.20;100443.81;5074480;28;20671;-79
2022/06/26 07:07:33;;;;;;;3.13;2.90;;;;;;;22.27;66.03;100443.00;5074194;28;20200;-78
2022/06/26 07:10:00;;;;;;;3.63;3.00;;;;;;;22.31;66.27;100444.50;5067023;28;20220;-79
2022/06/26 07:12:27;;;;;;;3.07;2.87;;;;;;;22.35;66.18;100452.16;5063970;28;20574;-78
2022/06/26 07:14:53;;;;;;;3.83;2.60;;;;;;;22.42;66.61;100441.97;5063423;28;20197;-79
2022/06/26 07:17:22;;;;;;;3.77;3.50;;;;;;;22.45;65.19;100454.22;5063646;28;20262;-78
2022/06/26 07:19:48;;;;;;;3.40;3.20;;;;;;;22.51;65.27;100485.69;5063396;28;20302;-78
2022/06/26 07:22:15;;;;;;;2.80;2.70;;;;;;;22.55;65.42;100484.53;5063678;28;20258;-79
2022/06/26 07:24:43;;;;;;;2.80;2.70;;;;;;;22.61;64.81;100473.47;5063457;28;20201;-77
2022/06/26 07:27:09;;;;;;;3.23;3.03;;;;;;;22.66;63.72;100497.13;5062767;28;20205;-79
2022/06/26 07:29:36;;;;;;;3.20;2.67;;;;;;;22.68;63.58;100516.50;5061741;28;20249;-78
2022/06/26 07:32:02;;;;;;;4.03;3.10;;;;;;;22.79;62.98;100541.41;5062570;28;20700;-79
2022/06/26 07:34:29;;;;;;;3.03;2.90;;;;;;;22.86;62.18;100571.13;5063814;28;20201;-78
2022/06/26 07:36:55;;;;;;;2.60;2.50;;;;;;;22.93;62.34;100568.88;5063315;28;20197;-78
2022/06/26 07:39:22;;;;;;;3.30;3.10;;;;;;;22.91;61.97;100592.97;5064507;28;20201;-78
2022/06/26 07:41:50;;;;;;;2.90;2.80;;;;;;;22.94;61.32;100595.41;5062120;28;20221;-78
2022/06/26 07:44:17;;;;;;;3.17;2.90;;;;;;;23.05;61.01;100600.00;5064193;28;20319;-79
2022/06/26 07:46:44;;;;;;;3.27;2.97;;;;;;;23.08;62.54;100604.28;5064225;28;20753;-77
2022/06/26 07:49:12;;;;;;;2.93;2.73;;;;;;;23.19;58.50;100658.53;5059714;28;20222;-77
2022/06/26 07:51:38;;;;;;;2.97;2.77;;;;;;;23.24;56.46;100738.09;5060982;28;20200;-77
2022/06/26 07:54:05;;;;;;;2.50;2.30;;;;;;;23.38;58.24;100751.34;5062595;28;20204;-78
2022/06/26 07:56:32;;;;;;;2.63;2.43;;;;;;;23.42;58.05;100743.16;5062042;28;20671;-78
2022/06/26 07:59:00;;;;;;;2.50;2.40;;;;;;;23.48;58.53;100729.41;5061278;28;20195;-77
2022/06/26 08:01:26;;;;;;;2.80;2.70;;;;;;;23.55;57.74;100720.88;5060613;28;20221;-77
2022/06/26 08:03:53;;;;;;;2.97;2.77;;;;;;;23.68;58.51;100731.53;5061874;28;20559;-78
2022/06/26 08:06:20;;;;;;;2.87;2.77;;;;;;;23.54;57.10;100713.00;5062375;28;20260;-78
2022/06/26 08:08:47;;;;;;;2.73;2.57;;;;;;;23.55;58.13;100710.22;5060509;28;20304;-78
2022/06/26 08:11:13;;;;;;;2.67;2.57;;;;;;;23.72;57.76;100706.38;5063172;28;20229;-78
2022/06/26 08:13:39;;;;;;;2.73;2.63;;;;;;;23.76;56.98;100741.69;5061834;28;20622;-78
2022/06/26 08:16:07;;;;;;;3.20;3.00;;;;;;;23.90;57.08;100741.59;5062970;28;20196;-77
2022/06/26 08:18:34;;;;;;;2.60;2.50;;;;;;;24.04;57.03;100758.44;5072735;28;20214;-78
2022/06/26 08:22:00;;;;;;;3.33;3.13;;;;;;;23.94;55.64;100774.22;5072796;28;20225;-79
2022/06/26 08:23:48;;;;;;;2.80;2.60;;;;;;;23.99;55.84;100770.28;5072510;28;20211;-78
2022/06/26 08:26:14;;;;;;;2.60;2.50;;;;;;;23.75;55.38;100796.81;5072558;28;20231;-78
2022/06/26 08:28:40;;;;;;;2.83;2.63;;;;;;;23.89;55.42;100790.56;5072588;28;20228;-78
2022/06/26 08:31:09;;;;;;;2.70;2.60;;;;;;;23.96;55.61;100775.84;5073535;28;20224;-78
2022/06/26 08:33:36;;;;;;;2.70;2.37;;;;;;;23.91;55.03;100817.97;5073718;28;20214;-78
2022/06/26 08:36:04;;;;;;;2.40;2.30;;;;;;;23.94;54.26;100836.44;5073319;28;20251;-78
2022/06/26 08:38:30;;;;;;;2.63;2.53;;;;;;;23.95;56.29;100842.63;5068266;28;20237;-78
2022/06/26 08:40:58;;;;;;;2.43;2.30;;;;;;;23.92;54.68;100840.16;5072457;28;20227;-78
2022/06/26 08:43:26;;;;;;;2.47;2.27;;;;;;;23.94;53.74;100836.44;5074049;28;20201;-78
2022/06/26 08:45:53;;;;;;;2.20;2.10;;;;;;;24.04;54.38;100833.13;5076836;28;20216;-78
2022/06/26 08:48:25;;;;;;;2.90;2.73;;;;;;;24.07;54.93;100816.91;5075831;28;20604;-78
2022/06/26 08:50:52;;;;;;;3.10;2.90;;;;;;;23.88;54.86;100830.66;5076488;28;20231;-78
2022/06/26 08:53:20;;;;;;;4.90;3.20;;;;;;;24.02;54.71;100837.69;5069745;28;20264;-78
2022/06/26 08:55:47;;;;;;;2.67;2.47;;;;;;;24.15;54.87;100833.22;5064651;28;20693;-78
2022/06/26 08:58:13;;;;;;;2.87;2.67;;;;;;;24.30;54.79;100824.16;4362702;28;10000846;-78
2022/06/26 09:00:39;;;;;;;2.63;2.43;;;;;;;24.43;54.77;100815.28;5052659;28;20239;-78
2022/06/26 09:03:06;;;;;;;2.80;2.60;;;;;;;24.47;54.54;100849.63;5052610;28;20854;-78
2022/06/26 09:05:33;;;;;;;2.67;2.57;;;;;;;24.37;54.19;100864.59;5052404;28;20639;-79
2022/06/26 09:08:00;;;;;;;3.23;3.03;;;;;;;24.56;55.37;100840.19;5060266;28;20269;-79
2022/06/26 09:10:28;;;;;;;2.80;2.60;;;;;;;24.67;54.11;100818.03;5072717;28;20229;-78
2022/06/26 09:12:56;;;;;;;3.30;3.10;;;;;;;24.72;53.79;100845.28;5075303;28;20216;-79
2022/06/26 09:15:25;;;;;;;2.80;2.60;;;;;;;24.80;54.38;100842.00;5076015;28;20212;-79
2022/06/26 09:18:00;;;;;;;2.77;2.67;;;;;;;24.78;54.13;100835.00;5075604;28;20210;-79
2022/06/26 09:20:33;;;;;;;3.10;2.90;;;;;;;24.88;53.59;100850.34;5074764;28;20319;-79
2022/06/26 09:23:02;;;;;;;3.17;2.97;;;;;;;24.94;53.86;100852.56;5075198;28;20208;-79
2022/06/26 09:25:36;;;;;;;3.63;3.33;;;;;;;24.92;53.45;100850.00;5073984;28;20208;-79
2022/06/26 09:28:11;;;;;;;3.20;2.90;;;;;;;25.02;54.46;100842.19;5074490;28;20208;-79
2022/06/26 09:30:53;;;;;;;3.57;3.37;;;;;;;25.05;54.42;100839.25;5074754;28;20224;-79
2022/06/26 09:33:20;;;;;;;2.70;2.57;;;;;;;25.09;54.04;100789.97;5075097;28;20668;-78
2022/06/26 09:35:47;;;;;;;3.30;3.00;;;;;;;25.06;53.76;100851.66;5075186;28;20216;-79
2022/06/26 09:38:21;;;;;;;3.50;3.30;;;;;;;25.15;53.45;100858.13;5073923;28;20216;-79
2022/06/26 09:40:53;;;;;;;2.97;2.80;;;;;;;25.27;53.57;100865.31;5074575;28;20228;-79
2022/06/26 09:43:30;;;;;;;3.33;3.23;;;;;;;25.44;53.79;100853.34;5075172;28;20204;-79
2022/06/26 09:45:59;;;;;;;2.93;2.73;;;;;;;25.62;52.29;100874.31;5074093;28;20714;-79
2022/06/26 09:48:25;;;;;;;2.97;2.77;;;;;;;25.78;52.61;100904.28;5074076;28;20212;-79
2022/06/26 09:50:53;;;;;;;2.93;2.83;;;;;;;25.61;49.32;100947.47;5074713;28;20722;-79
2022/06/26 09:53:22;;;;;;;3.20;3.00;;;;;;;25.71;52.01;100949.34;5074097;28;20227;-79
2022/06/26 09:55:51;;;;;;;3.20;2.90;;;;;;;25.24;50.85;100968.88;5073745;28;20212;-79
2022/06/26 09:58:18;;;;;;;2.90;2.70;;;;;;;25.38;51.65;100944.69;5077882;28;20238;-79
2022/06/26 10:06:25;;;;;;;2.80;2.70;;;;;;;25.32;51.02;100970.03;5094391;28;20243;-79
2022/06/26 10:06:27;;;;;;;2.90;2.70;;;;;;;25.55;51.37;100938.09;5093979;28;20735;-79
2022/06/26 10:09:00;;;;;;;2.63;2.47;;;;;;;25.80;51.70;100947.81;5069661;28;20624;-79
2022/06/26 10:11:29;;;;;;;2.40;2.30;;;;;;;25.86;48.12;100954.53;5072766;28;20225;-78
2022/06/26 10:14:00;;;;;;;2.70;2.60;;;;;;;25.98;48.81;101017.81;5072945;28;20209;-78
2022/06/26 10:17:17;;;;;;;2.73;2.63;;;;;;;26.27;48.51;101020.16;5073168;28;20212;-79
2022/06/26 10:19:46;;;;;;;2.50;2.30;;;;;;;26.34;47.85;101048.13;5069453;28;20234;-78
2022/06/26 10:22:12;;;;;;;2.90;2.70;;;;;;;26.41;48.55;101051.22;5073900;28;20214;-78
2022/06/26 10:24:50;;;;;;;3.63;2.90;;;;;;;26.43;48.73;101028.72;5073538;28;20240;-79
2022/06/26 10:27:17;;;;;;;3.17;2.97;;;;;;;26.19;47.84;101060.03;5072946;28;20216;-79
2022/06/26 10:29:43;;;;;;;3.07;2.87;;;;;;;26.40;48.32;101047.66;5073248;28;20319;-79
2022/06/26 10:32:10;;;;;;;3.40;3.20;;;;;;;26.39;47.78;101031.75;5073135;28;20208;-79
2022/06/26 10:34:37;;;;;;;2.93;2.63;;;;;;;26.17;48.15;101057.47;5072735;28;20214;-79
2022/06/26 10:37:06;;;;;;;2.50;2.40;;;;;;;26.31;48.33;101027.81;5068821;28;20255;-79
2022/06/26 10:39:46;;;;;;;2.90;2.80;;;;;;;25.96;49.63;101038.50;5072592;28;20219;-79
2022/06/26 10:45:06;;;;;;;3.43;3.23;;;;;;;25.77;51.28;100966.78;5072441;28;20296;-78
2022/06/26 10:47:44;;;;;;;3.70;3.40;;;;;;;25.79;51.53;100962.16;5071568;28;20588;-78
2022/06/26 10:50:25;;;;;;;3.30;3.20;;;;;;;26.01;51.57;100934.69;5072492;28;20224;-78
2022/06/26 10:52:52;;;;;;;3.60;3.40;;;;;;;26.25;51.40;100948.00;5072973;28;20211;-79
2022/06/26 10:55:19;;;;;;;3.37;3.17;;;;;;;26.21;49.80;100933.16;5071887;28;20593;-78
2022/06/26 10:57:49;;;;;;;3.23;3.03;;;;;;;26.30;51.16;100964.56;5071813;28;20284;-79
2022/06/26 11:00:16;;;;;;;3.23;3.13;;;;;;;26.59;52.05;100917.78;5052576;28;20229;-79
2022/06/26 11:02:45;;;;;;;3.63;3.43;;;;;;;26.42;51.24;100927.09;5051895;28;20753;-79
2022/06/26 11:05:13;;;;;;;3.70;3.50;;;;;;;26.67;52.40;100907.31;5053350;28;20206;-79
2022/06/26 11:07:45;;;;;;;3.20;2.90;;;;;;;26.60;51.24;100925.69;5056789;28;20601;-79
2022/06/26 11:10:13;;;;;;;2.97;2.87;;;;;;;26.94;50.92;100931.88;5073077;28;20290;-79
2022/06/26 11:12:41;;;;;;;3.60;3.30;;;;;;;27.09;51.15;100935.16;5072601;28;20208;-79
2022/06/26 11:15:20;;;;;;;3.30;2.93;;;;;;;27.32;49.83;100954.78;5072712;28;20196;-79
2022/06/26 11:17:52;;;;;;;3.20;3.00;;;;;;;27.17;49.39;100988.13;5072533;28;20581;-79
2022/06/26 11:23:11;;;;;;;3.40;3.20;;;;;;;27.33;49.06;101028.00;5071936;28;20255;-79
2022/06/26 11:25:37;;;;;;;3.00;2.80;;;;;;;27.12;48.97;101014.47;5072266;28;20620;-79
2022/06/26 11:28:08;;;;;;;3.23;3.03;;;;;;;26.92;48.88;101006.19;5072615;28;20269;-79
2022/06/26 11:30:37;;;;;;;3.47;3.27;;;;;;;26.80;50.87;100966.97;5072402;28;20232;-79
2022/06/26 11:33:04;;;;;;;3.90;3.23;;;;;;;26.93;52.58;100922.13;5072467;28;20209;-79
2022/06/26 11:35:30;;;;;;;3.53;3.33;;;;;;;26.83;51.69;100931.88;5071960;28;20748;-79
2022/06/26 11:37:56;;;;;;;3.70;3.47;;;;;;;26.71;51.07;100933.72;5067166;28;20211;-78